sensor_id;sensor_type;location;lat;lon;timestamp;P1;durP1;ratioP1;P2;durP2;ratioP2
67768;SDS011;54569;52.018;5.584;2023-05-07T00:00:21;6.55;;;5.93;;
67768;SDS011;54569;52.018;5.584;2023-05-07T00:02:47;7.85;;;6.45;;
67768;SDS011;54569;52.018;5.584;2023-05-07T00:05:13;6.70;;;5.97;;
67768;SDS011;54569;52.018;5.584;2023-05-07T00:07:39;7.32;;;6.65;;
67768;SDS011;54569;52.018;5.584;2023-05-07T00:10:05;6.20;;;5.65;;
67768;SDS011;54569;52.018;5.584;2023-05-07T00:12:32;7.00;;;6.40;;
67768;SDS011;54569;52.018;5.584;2023-05-07T00:15:01;6.70;;;6.10;;
67768;SDS011;54569;52.018;5.584;2023-05-07T00:17:29;6.75;;;6.20;;
67768;SDS011;54569;52.018;5.584;2023-05-07T00:19:55;6.60;;;5.93;;
67768;SDS011;54569;52.018;5.584;2023-05-07T00:22:20;8.02;;;6.40;;
67768;SDS011;54569;52.018;5.584;2023-05-07T00:24:46;8.80;;;6.40;;
67768;SDS011;54569;52.018;5.584;2023-05-07T00:27:12;6.90;;;6.20;;
67768;SDS011;54569;52.018;5.584;2023-05-07T00:29:39;6.47;;;5.88;;
67768;SDS011;54569;52.018;5.584;2023-05-07T00:32:05;6.80;;;6.30;;
67768;SDS011;54569;52.018;5.584;2023-05-07T00:34:31;6.78;;;6.18;;
67768;SDS011;54569;52.018;5.584;2023-05-07T00:36:56;6.72;;;6.13;;
67768;SDS011;54569;52.018;5.584;2023-05-07T00:39:22;7.30;;;6.60;;
67768;SDS011;54569;52.018;5.584;2023-05-07T00:41:48;7.68;;;6.88;;
67768;SDS011;54569;52.018;5.584;2023-05-07T00:44:13;7.88;;;7.00;;
67768;SDS011;54569;52.018;5.584;2023-05-07T00:46:39;7.65;;;6.95;;
67768;SDS011;54569;52.018;5.584;2023-05-07T00:49:05;8.43;;;6.75;;
67768;SDS011;54569;52.018;5.584;2023-05-07T00:51:32;7.78;;;6.90;;
67768;SDS011;54569;52.018;5.584;2023-05-07T00:53:59;9.27;;;7.28;;
67768;SDS011;54569;52.018;5.584;2023-05-07T00:56:27;7.57;;;6.90;;
67768;SDS011;54569;52.018;5.584;2023-05-07T00:58:52;8.50;;;7.70;;
67768;SDS011;54569;52.018;5.584;2023-05-07T01:01:18;8.05;;;7.22;;
67768;SDS011;54569;52.018;5.584;2023-05-07T01:03:45;8.02;;;7.30;;
67768;SDS011;54569;52.018;5.584;2023-05-07T01:06:10;10.48;;;7.22;;
67768;SDS011;54569;52.018;5.584;2023-05-07T01:08:39;11.02;;;8.30;;
67768;SDS011;54569;52.018;5.584;2023-05-07T01:11:06;8.05;;;7.13;;
67768;SDS011;54569;52.018;5.584;2023-05-07T01:13:33;12.00;;;8.05;;
67768;SDS011;54569;52.018;5.584;2023-05-07T01:16:01;7.72;;;7.03;;
67768;SDS011;54569;52.018;5.584;2023-05-07T01:18:28;7.50;;;6.90;;
67768;SDS011;54569;52.018;5.584;2023-05-07T01:20:55;10.68;;;8.35;;
67768;SDS011;54569;52.018;5.584;2023-05-07T01:23:23;9.13;;;8.18;;
67768;SDS011;54569;52.018;5.584;2023-05-07T01:25:51;9.48;;;8.15;;
67768;SDS011;54569;52.018;5.584;2023-05-07T01:28:18;8.63;;;7.70;;
67768;SDS011;54569;52.018;5.584;2023-05-07T01:30:45;9.75;;;8.80;;
67768;SDS011;54569;52.018;5.584;2023-05-07T01:33:17;9.57;;;8.52;;
67768;SDS011;54569;52.018;5.584;2023-05-07T01:35:51;9.13;;;8.20;;
67768;SDS011;54569;52.018;5.584;2023-05-07T01:38:18;9.32;;;8.38;;
67768;SDS011;54569;52.018;5.584;2023-05-07T01:40:46;10.02;;;9.02;;
67768;SDS011;54569;52.018;5.584;2023-05-07T01:43:12;9.48;;;8.68;;
67768;SDS011;54569;52.018;5.584;2023-05-07T01:45:38;9.48;;;8.57;;
67768;SDS011;54569;52.018;5.584;2023-05-07T01:48:05;10.80;;;9.00;;
67768;SDS011;54569;52.018;5.584;2023-05-07T01:50:33;9.93;;;8.98;;
67768;SDS011;54569;52.018;5.584;2023-05-07T01:52:59;10.18;;;9.18;;
67768;SDS011;54569;52.018;5.584;2023-05-07T01:55:27;9.70;;;8.55;;
67768;SDS011;54569;52.018;5.584;2023-05-07T01:57:53;10.38;;;9.38;;
67768;SDS011;54569;52.018;5.584;2023-05-07T02:00:19;10.50;;;9.48;;
67768;SDS011;54569;52.018;5.584;2023-05-07T02:02:44;10.80;;;9.70;;
67768;SDS011;54569;52.018;5.584;2023-05-07T02:05:22;10.73;;;9.60;;
67768;SDS011;54569;52.018;5.584;2023-05-07T02:07:55;11.50;;;9.30;;
67768;SDS011;54569;52.018;5.584;2023-05-07T02:10:21;10.60;;;9.27;;
67768;SDS011;54569;52.018;5.584;2023-05-07T02:12:47;10.82;;;9.73;;
67768;SDS011;54569;52.018;5.584;2023-05-07T02:15:13;12.98;;;10.70;;
67768;SDS011;54569;52.018;5.584;2023-05-07T02:17:39;11.38;;;10.27;;
67768;SDS011;54569;52.018;5.584;2023-05-07T02:20:24;10.75;;;9.75;;
67768;SDS011;54569;52.018;5.584;2023-05-07T02:22:50;11.88;;;10.60;;
67768;SDS011;54569;52.018;5.584;2023-05-07T02:25:15;11.40;;;10.40;;
67768;SDS011;54569;52.018;5.584;2023-05-07T02:27:41;12.45;;;11.02;;
67768;SDS011;54569;52.018;5.584;2023-05-07T02:30:07;11.40;;;10.40;;
67768;SDS011;54569;52.018;5.584;2023-05-07T02:32:33;12.40;;;11.23;;
67768;SDS011;54569;52.018;5.584;2023-05-07T02:34:58;15.80;;;11.07;;
67768;SDS011;54569;52.018;5.584;2023-05-07T02:37:24;11.80;;;10.68;;
67768;SDS011;54569;52.018;5.584;2023-05-07T02:39:50;12.43;;;11.18;;
67768;SDS011;54569;52.018;5.584;2023-05-07T02:42:16;12.02;;;10.93;;
67768;SDS011;54569;52.018;5.584;2023-05-07T02:44:41;12.57;;;11.27;;
67768;SDS011;54569;52.018;5.584;2023-05-07T02:47:07;13.75;;;12.48;;
67768;SDS011;54569;52.018;5.584;2023-05-07T02:49:35;12.90;;;11.38;;
67768;SDS011;54569;52.018;5.584;2023-05-07T02:52:01;12.65;;;11.45;;
67768;SDS011;54569;52.018;5.584;2023-05-07T02:54:27;11.55;;;10.48;;
67768;SDS011;54569;52.018;5.584;2023-05-07T02:56:53;12.02;;;10.93;;
67768;SDS011;54569;52.018;5.584;2023-05-07T02:59:18;12.63;;;11.43;;
67768;SDS011;54569;52.018;5.584;2023-05-07T03:01:44;12.40;;;11.20;;
67768;SDS011;54569;52.018;5.584;2023-05-07T03:04:11;12.63;;;11.40;;
67768;SDS011;54569;52.018;5.584;2023-05-07T03:06:36;12.35;;;11.15;;
67768;SDS011;54569;52.018;5.584;2023-05-07T03:09:02;13.35;;;12.05;;
67768;SDS011;54569;52.018;5.584;2023-05-07T03:11:29;12.80;;;11.65;;
67768;SDS011;54569;52.018;5.584;2023-05-07T03:13:55;13.13;;;11.82;;
67768;SDS011;54569;52.018;5.584;2023-05-07T03:16:21;13.43;;;12.20;;
67768;SDS011;54569;52.018;5.584;2023-05-07T03:18:47;13.00;;;11.18;;
67768;SDS011;54569;52.018;5.584;2023-05-07T03:21:12;13.07;;;11.77;;
67768;SDS011;54569;52.018;5.584;2023-05-07T03:23:38;13.93;;;12.27;;
67768;SDS011;54569;52.018;5.584;2023-05-07T03:26:04;14.85;;;13.35;;
67768;SDS011;54569;52.018;5.584;2023-05-07T03:28:30;12.52;;;11.32;;
67768;SDS011;54569;52.018;5.584;2023-05-07T03:30:59;14.30;;;12.82;;
67768;SDS011;54569;52.018;5.584;2023-05-07T03:33:25;13.05;;;11.75;;
67768;SDS011;54569;52.018;5.584;2023-05-07T03:35:53;12.32;;;10.82;;
67768;SDS011;54569;52.018;5.584;2023-05-07T03:38:22;12.68;;;11.48;;
67768;SDS011;54569;52.018;5.584;2023-05-07T03:40:48;12.18;;;11.07;;
67768;SDS011;54569;52.018;5.584;2023-05-07T03:43:15;12.95;;;11.25;;
67768;SDS011;54569;52.018;5.584;2023-05-07T03:45:45;12.40;;;11.20;;
67768;SDS011;54569;52.018;5.584;2023-05-07T03:48:18;13.00;;;11.70;;
67768;SDS011;54569;52.018;5.584;2023-05-07T03:50:45;11.50;;;10.50;;
67768;SDS011;54569;52.018;5.584;2023-05-07T03:53:12;12.00;;;10.60;;
67768;SDS011;54569;52.018;5.584;2023-05-07T03:55:38;12.50;;;11.20;;
67768;SDS011;54569;52.018;5.584;2023-05-07T03:58:04;12.88;;;11.68;;
67768;SDS011;54569;52.018;5.584;2023-05-07T04:00:30;12.35;;;11.15;;
67768;SDS011;54569;52.018;5.584;2023-05-07T04:02:58;13.32;;;12.00;;
67768;SDS011;54569;52.018;5.584;2023-05-07T04:05:27;12.55;;;11.02;;
67768;SDS011;54569;52.018;5.584;2023-05-07T04:07:58;12.85;;;11.55;;
67768;SDS011;54569;52.018;5.584;2023-05-07T04:10:29;11.60;;;10.50;;
67768;SDS011;54569;52.018;5.584;2023-05-07T04:12:56;12.02;;;10.55;;
67768;SDS011;54569;52.018;5.584;2023-05-07T04:15:24;13.52;;;12.13;;
67768;SDS011;54569;52.018;5.584;2023-05-07T04:17:50;11.85;;;10.65;;
67768;SDS011;54569;52.018;5.584;2023-05-07T04:20:18;12.85;;;11.70;;
67768;SDS011;54569;52.018;5.584;2023-05-07T04:22:48;13.90;;;12.40;;
67768;SDS011;54569;52.018;5.584;2023-05-07T04:25:15;13.50;;;12.05;;
67768;SDS011;54569;52.018;5.584;2023-05-07T04:27:41;13.38;;;11.32;;
67768;SDS011;54569;52.018;5.584;2023-05-07T04:30:07;13.50;;;12.20;;
67768;SDS011;54569;52.018;5.584;2023-05-07T04:32:37;13.35;;;12.05;;
67768;SDS011;54569;52.018;5.584;2023-05-07T04:35:04;13.52;;;12.23;;
67768;SDS011;54569;52.018;5.584;2023-05-07T04:37:31;15.20;;;12.93;;
67768;SDS011;54569;52.018;5.584;2023-05-07T04:39:58;13.30;;;12.10;;
67768;SDS011;54569;52.018;5.584;2023-05-07T04:42:24;16.30;;;12.18;;
67768;SDS011;54569;52.018;5.584;2023-05-07T04:44:52;13.80;;;12.05;;
67768;SDS011;54569;52.018;5.584;2023-05-07T04:47:18;14.63;;;12.02;;
67768;SDS011;54569;52.018;5.584;2023-05-07T04:49:44;13.00;;;11.70;;
67768;SDS011;54569;52.018;5.584;2023-05-07T04:52:11;13.63;;;12.23;;
67768;SDS011;54569;52.018;5.584;2023-05-07T04:54:36;13.63;;;10.77;;
67768;SDS011;54569;52.018;5.584;2023-05-07T04:57:05;14.80;;;13.38;;
67768;SDS011;54569;52.018;5.584;2023-05-07T04:59:31;13.00;;;11.70;;
67768;SDS011;54569;52.018;5.584;2023-05-07T05:01:58;14.18;;;12.75;;
67768;SDS011;54569;52.018;5.584;2023-05-07T05:04:24;13.52;;;12.20;;
67768;SDS011;54569;52.018;5.584;2023-05-07T05:06:49;15.18;;;13.15;;
67768;SDS011;54569;52.018;5.584;2023-05-07T05:09:16;15.23;;;13.15;;
67768;SDS011;54569;52.018;5.584;2023-05-07T05:11:42;13.05;;;11.77;;
67768;SDS011;54569;52.018;5.584;2023-05-07T05:14:08;13.23;;;11.82;;
67768;SDS011;54569;52.018;5.584;2023-05-07T05:16:34;12.77;;;11.48;;
67768;SDS011;54569;52.018;5.584;2023-05-07T05:19:01;14.55;;;12.57;;
67768;SDS011;54569;52.018;5.584;2023-05-07T05:21:29;13.63;;;12.15;;
67768;SDS011;54569;52.018;5.584;2023-05-07T05:24:01;17.15;;;12.45;;
67768;SDS011;54569;52.018;5.584;2023-05-07T05:26:27;13.98;;;11.77;;
67768;SDS011;54569;52.018;5.584;2023-05-07T05:28:52;12.40;;;11.20;;
67768;SDS011;54569;52.018;5.584;2023-05-07T05:31:20;13.38;;;12.05;;
67768;SDS011;54569;52.018;5.584;2023-05-07T05:33:48;12.70;;;11.40;;
67768;SDS011;54569;52.018;5.584;2023-05-07T05:36:13;13.05;;;11.70;;
67768;SDS011;54569;52.018;5.584;2023-05-07T05:38:41;13.02;;;11.75;;
67768;SDS011;54569;52.018;5.584;2023-05-07T05:41:08;13.13;;;11.73;;
67768;SDS011;54569;52.018;5.584;2023-05-07T05:43:34;13.90;;;12.40;;
67768;SDS011;54569;52.018;5.584;2023-05-07T05:46:00;14.25;;;12.77;;
67768;SDS011;54569;52.018;5.584;2023-05-07T05:48:26;14.98;;;13.48;;
67768;SDS011;54569;52.018;5.584;2023-05-07T05:50:52;14.95;;;13.18;;
67768;SDS011;54569;52.018;5.584;2023-05-07T05:53:18;14.57;;;13.02;;
67768;SDS011;54569;52.018;5.584;2023-05-07T05:55:44;14.48;;;13.02;;
67768;SDS011;54569;52.018;5.584;2023-05-07T05:58:11;14.73;;;13.05;;
67768;SDS011;54569;52.018;5.584;2023-05-07T06:00:42;13.98;;;12.57;;
67768;SDS011;54569;52.018;5.584;2023-05-07T06:03:07;14.90;;;12.68;;
67768;SDS011;54569;52.018;5.584;2023-05-07T06:05:34;13.98;;;12.57;;
67768;SDS011;54569;52.018;5.584;2023-05-07T06:08:00;17.60;;;13.25;;
67768;SDS011;54569;52.018;5.584;2023-05-07T06:10:30;14.35;;;12.85;;
67768;SDS011;54569;52.018;5.584;2023-05-07T06:12:56;14.48;;;13.10;;
67768;SDS011;54569;52.018;5.584;2023-05-07T06:15:22;14.82;;;12.70;;
67768;SDS011;54569;52.018;5.584;2023-05-07T06:17:48;14.63;;;13.13;;
67768;SDS011;54569;52.018;5.584;2023-05-07T06:20:14;14.63;;;13.32;;
67768;SDS011;54569;52.018;5.584;2023-05-07T06:22:40;13.95;;;12.55;;
67768;SDS011;54569;52.018;5.584;2023-05-07T06:25:08;15.13;;;13.55;;
67768;SDS011;54569;52.018;5.584;2023-05-07T06:27:34;13.60;;;12.30;;
67768;SDS011;54569;52.018;5.584;2023-05-07T06:29:59;14.32;;;12.93;;
67768;SDS011;54569;52.018;5.584;2023-05-07T06:32:25;15.00;;;13.55;;
67768;SDS011;54569;52.018;5.584;2023-05-07T06:34:51;15.30;;;13.80;;
67768;SDS011;54569;52.018;5.584;2023-05-07T06:37:18;15.00;;;13.50;;
67768;SDS011;54569;52.018;5.584;2023-05-07T06:39:55;14.40;;;12.93;;
67768;SDS011;54569;52.018;5.584;2023-05-07T06:42:21;15.85;;;14.15;;
67768;SDS011;54569;52.018;5.584;2023-05-07T06:44:48;15.43;;;13.15;;
67768;SDS011;54569;52.018;5.584;2023-05-07T06:47:16;16.73;;;14.23;;
67768;SDS011;54569;52.018;5.584;2023-05-07T06:49:44;15.68;;;14.07;;
67768;SDS011;54569;52.018;5.584;2023-05-07T06:52:13;15.90;;;14.30;;
67768;SDS011;54569;52.018;5.584;2023-05-07T06:54:39;16.05;;;14.35;;
67768;SDS011;54569;52.018;5.584;2023-05-07T06:57:05;15.82;;;14.02;;
67768;SDS011;54569;52.018;5.584;2023-05-07T06:59:31;14.88;;;13.48;;
67768;SDS011;54569;52.018;5.584;2023-05-07T07:01:58;14.65;;;13.02;;
67768;SDS011;54569;52.018;5.584;2023-05-07T07:04:23;15.73;;;14.23;;
67768;SDS011;54569;52.018;5.584;2023-05-07T07:06:57;15.88;;;14.27;;
67768;SDS011;54569;52.018;5.584;2023-05-07T07:09:23;15.98;;;14.07;;
67768;SDS011;54569;52.018;5.584;2023-05-07T07:11:50;14.40;;;13.02;;
67768;SDS011;54569;52.018;5.584;2023-05-07T07:14:16;15.05;;;13.60;;
67768;SDS011;54569;52.018;5.584;2023-05-07T07:16:47;15.70;;;14.05;;
67768;SDS011;54569;52.018;5.584;2023-05-07T07:19:16;15.57;;;14.13;;
67768;SDS011;54569;52.018;5.584;2023-05-07T07:21:42;15.32;;;13.52;;
67768;SDS011;54569;52.018;5.584;2023-05-07T07:24:10;14.77;;;13.27;;
67768;SDS011;54569;52.018;5.584;2023-05-07T07:26:36;14.45;;;13.05;;
67768;SDS011;54569;52.018;5.584;2023-05-07T07:29:02;15.35;;;13.90;;
67768;SDS011;54569;52.018;5.584;2023-05-07T07:31:28;14.30;;;12.98;;
67768;SDS011;54569;52.018;5.584;2023-05-07T07:33:54;13.88;;;12.48;;
67768;SDS011;54569;52.018;5.584;2023-05-07T07:36:20;15.40;;;13.77;;
67768;SDS011;54569;52.018;5.584;2023-05-07T07:38:46;14.38;;;12.95;;
67768;SDS011;54569;52.018;5.584;2023-05-07T07:41:13;15.10;;;13.52;;
67768;SDS011;54569;52.018;5.584;2023-05-07T07:43:38;14.93;;;13.43;;
67768;SDS011;54569;52.018;5.584;2023-05-07T07:46:04;16.25;;;14.70;;
67768;SDS011;54569;52.018;5.584;2023-05-07T07:48:31;14.63;;;13.13;;
67768;SDS011;54569;52.018;5.584;2023-05-07T07:50:58;15.30;;;13.77;;
67768;SDS011;54569;52.018;5.584;2023-05-07T07:53:24;15.02;;;13.52;;
67768;SDS011;54569;52.018;5.584;2023-05-07T07:55:50;15.13;;;13.63;;
67768;SDS011;54569;52.018;5.584;2023-05-07T07:58:19;14.43;;;13.02;;
67768;SDS011;54569;52.018;5.584;2023-05-07T08:00:45;15.10;;;13.50;;
67768;SDS011;54569;52.018;5.584;2023-05-07T08:03:12;14.77;;;13.32;;
67768;SDS011;54569;52.018;5.584;2023-05-07T08:05:42;15.68;;;14.10;;
67768;SDS011;54569;52.018;5.584;2023-05-07T08:08:08;15.27;;;13.80;;
67768;SDS011;54569;52.018;5.584;2023-05-07T08:10:36;16.45;;;14.85;;
67768;SDS011;54569;52.018;5.584;2023-05-07T08:13:08;14.85;;;13.43;;
67768;SDS011;54569;52.018;5.584;2023-05-07T08:15:36;16.60;;;15.02;;
67768;SDS011;54569;52.018;5.584;2023-05-07T08:18:02;15.10;;;13.60;;
67768;SDS011;54569;52.018;5.584;2023-05-07T08:20:29;15.85;;;14.38;;
67768;SDS011;54569;52.018;5.584;2023-05-07T08:22:56;14.95;;;13.55;;
67768;SDS011;54569;52.018;5.584;2023-05-07T08:25:22;16.20;;;14.60;;
67768;SDS011;54569;52.018;5.584;2023-05-07T08:27:48;16.95;;;15.18;;
67768;SDS011;54569;52.018;5.584;2023-05-07T08:30:14;16.23;;;14.48;;
67768;SDS011;54569;52.018;5.584;2023-05-07T08:32:40;16.23;;;14.65;;
67768;SDS011;54569;52.018;5.584;2023-05-07T08:35:06;15.73;;;14.27;;
67768;SDS011;54569;52.018;5.584;2023-05-07T08:37:32;17.58;;;15.80;;
67768;SDS011;54569;52.018;5.584;2023-05-07T08:39:59;17.27;;;15.70;;
67768;SDS011;54569;52.018;5.584;2023-05-07T08:42:30;16.70;;;15.10;;
67768;SDS011;54569;52.018;5.584;2023-05-07T08:45:00;17.80;;;15.95;;
67768;SDS011;54569;52.018;5.584;2023-05-07T08:47:43;18.83;;;16.88;;
67768;SDS011;54569;52.018;5.584;2023-05-07T08:50:11;17.48;;;15.77;;
67768;SDS011;54569;52.018;5.584;2023-05-07T08:52:37;17.55;;;15.82;;
67768;SDS011;54569;52.018;5.584;2023-05-07T08:55:05;17.50;;;15.95;;
67768;SDS011;54569;52.018;5.584;2023-05-07T08:57:32;17.35;;;15.75;;
67768;SDS011;54569;52.018;5.584;2023-05-07T08:59:58;18.35;;;16.40;;
67768;SDS011;54569;52.018;5.584;2023-05-07T09:02:24;18.27;;;16.45;;
67768;SDS011;54569;52.018;5.584;2023-05-07T09:04:50;19.20;;;17.20;;
67768;SDS011;54569;52.018;5.584;2023-05-07T09:07:16;18.05;;;16.23;;
67768;SDS011;54569;52.018;5.584;2023-05-07T09:09:43;18.08;;;16.38;;
67768;SDS011;54569;52.018;5.584;2023-05-07T09:12:10;16.70;;;15.13;;
67768;SDS011;54569;52.018;5.584;2023-05-07T09:14:36;17.33;;;14.35;;
67768;SDS011;54569;52.018;5.584;2023-05-07T09:17:03;15.50;;;13.82;;
67768;SDS011;54569;52.018;5.584;2023-05-07T09:19:29;15.57;;;13.93;;
67768;SDS011;54569;52.018;5.584;2023-05-07T09:21:59;15.95;;;14.40;;
67768;SDS011;54569;52.018;5.584;2023-05-07T09:24:38;14.40;;;12.93;;
67768;SDS011;54569;52.018;5.584;2023-05-07T09:27:06;15.02;;;13.52;;
67768;SDS011;54569;52.018;5.584;2023-05-07T09:29:33;14.50;;;13.02;;
67768;SDS011;54569;52.018;5.584;2023-05-07T09:32:03;14.95;;;13.48;;
67768;SDS011;54569;52.018;5.584;2023-05-07T09:34:33;15.38;;;13.88;;
67768;SDS011;54569;52.018;5.584;2023-05-07T09:37:01;14.45;;;13.05;;
67768;SDS011;54569;52.018;5.584;2023-05-07T09:39:41;15.60;;;13.93;;
67768;SDS011;54569;52.018;5.584;2023-05-07T09:42:09;14.73;;;13.32;;
67768;SDS011;54569;52.018;5.584;2023-05-07T09:44:37;15.45;;;13.57;;
67768;SDS011;54569;52.018;5.584;2023-05-07T09:47:07;14.80;;;13.27;;
67768;SDS011;54569;52.018;5.584;2023-05-07T09:49:39;13.90;;;12.60;;
67768;SDS011;54569;52.018;5.584;2023-05-07T09:52:10;13.40;;;12.20;;
67768;SDS011;54569;52.018;5.584;2023-05-07T09:54:40;14.15;;;12.75;;
67768;SDS011;54569;52.018;5.584;2023-05-07T09:57:09;13.90;;;12.50;;
67768;SDS011;54569;52.018;5.584;2023-05-07T09:59:37;15.02;;;13.52;;
67768;SDS011;54569;52.018;5.584;2023-05-07T10:02:07;14.13;;;12.63;;
67768;SDS011;54569;52.018;5.584;2023-05-07T10:04:43;12.35;;;10.77;;
67768;SDS011;54569;52.018;5.584;2023-05-07T10:07:09;11.63;;;9.80;;
67768;SDS011;54569;52.018;5.584;2023-05-07T10:09:36;14.63;;;11.15;;
67768;SDS011;54569;52.018;5.584;2023-05-07T10:12:05;11.63;;;10.25;;
67768;SDS011;54569;52.018;5.584;2023-05-07T10:14:33;11.65;;;10.07;;
67768;SDS011;54569;52.018;5.584;2023-05-07T10:16:59;12.65;;;10.30;;
67768;SDS011;54569;52.018;5.584;2023-05-07T10:19:27;9.95;;;8.85;;
67768;SDS011;54569;52.018;5.584;2023-05-07T10:21:56;10.35;;;9.05;;
67768;SDS011;54569;52.018;5.584;2023-05-07T10:24:31;8.60;;;7.65;;
67768;SDS011;54569;52.018;5.584;2023-05-07T10:27:07;9.23;;;8.25;;
67768;SDS011;54569;52.018;5.584;2023-05-07T10:30:13;11.32;;;9.00;;
67768;SDS011;54569;52.018;5.584;2023-05-07T10:32:40;9.00;;;8.10;;
67768;SDS011;54569;52.018;5.584;2023-05-07T10:35:17;9.38;;;8.48;;
67768;SDS011;54569;52.018;5.584;2023-05-07T10:37:47;10.38;;;8.02;;
67768;SDS011;54569;52.018;5.584;2023-05-07T10:40:14;8.75;;;7.85;;
67768;SDS011;54569;52.018;5.584;2023-05-07T10:42:52;8.32;;;7.55;;
67768;SDS011;54569;52.018;5.584;2023-05-07T10:45:22;9.85;;;8.43;;
67768;SDS011;54569;52.018;5.584;2023-05-07T10:50:41;7.07;;;6.35;;
67768;SDS011;54569;52.018;5.584;2023-05-07T10:58:51;7.80;;;6.35;;
67768;SDS011;54569;52.018;5.584;2023-05-07T11:04:23;6.80;;;6.10;;
67768;SDS011;54569;52.018;5.584;2023-05-07T11:07:27;9.30;;;6.63;;
67768;SDS011;54569;52.018;5.584;2023-05-07T11:09:59;7.63;;;6.30;;
67768;SDS011;54569;52.018;5.584;2023-05-07T11:12:55;7.05;;;5.60;;
67768;SDS011;54569;52.018;5.584;2023-05-07T11:15:37;6.47;;;5.85;;
67768;SDS011;54569;52.018;5.584;2023-05-07T11:18:13;8.15;;;6.18;;
67768;SDS011;54569;52.018;5.584;2023-05-07T11:23:54;6.65;;;5.85;;
67768;SDS011;54569;52.018;5.584;2023-05-07T11:26:27;6.63;;;5.88;;
67768;SDS011;54569;52.018;5.584;2023-05-07T11:28:55;6.22;;;5.10;;
67768;SDS011;54569;52.018;5.584;2023-05-07T11:31:27;7.78;;;5.78;;
67768;SDS011;54569;52.018;5.584;2023-05-07T11:33:56;8.00;;;6.50;;
67768;SDS011;54569;52.018;5.584;2023-05-07T11:36:24;7.57;;;6.63;;
67768;SDS011;54569;52.018;5.584;2023-05-07T11:38:52;8.40;;;6.75;;
67768;SDS011;54569;52.018;5.584;2023-05-07T11:41:18;7.63;;;6.78;;
67768;SDS011;54569;52.018;5.584;2023-05-07T11:43:58;7.50;;;6.10;;
67768;SDS011;54569;52.018;5.584;2023-05-07T11:46:25;7.28;;;6.57;;
67768;SDS011;54569;52.018;5.584;2023-05-07T11:48:52;9.60;;;7.00;;
67768;SDS011;54569;52.018;5.584;2023-05-07T11:51:19;6.80;;;6.18;;
67768;SDS011;54569;52.018;5.584;2023-05-07T11:53:46;7.88;;;6.60;;
67768;SDS011;54569;52.018;5.584;2023-05-07T11:56:12;7.85;;;5.60;;
67768;SDS011;54569;52.018;5.584;2023-05-07T11:58:40;7.18;;;6.47;;
67768;SDS011;54569;52.018;5.584;2023-05-07T12:01:07;7.07;;;6.38;;
67768;SDS011;54569;52.018;5.584;2023-05-07T12:03:35;7.10;;;6.50;;
67768;SDS011;54569;52.018;5.584;2023-05-07T12:06:02;7.70;;;6.97;;
67768;SDS011;54569;52.018;5.584;2023-05-07T12:08:31;7.55;;;6.78;;
67768;SDS011;54569;52.018;5.584;2023-05-07T12:10:56;8.13;;;7.32;;
67768;SDS011;54569;52.018;5.584;2023-05-07T12:13:22;8.10;;;7.38;;
67768;SDS011;54569;52.018;5.584;2023-05-07T12:15:53;10.60;;;8.23;;
67768;SDS011;54569;52.018;5.584;2023-05-07T12:18:19;9.35;;;8.27;;
67768;SDS011;54569;52.018;5.584;2023-05-07T12:20:45;10.38;;;7.95;;
67768;SDS011;54569;52.018;5.584;2023-05-07T12:23:11;8.43;;;7.70;;
67768;SDS011;54569;52.018;5.584;2023-05-07T12:25:38;8.75;;;7.63;;
67768;SDS011;54569;52.018;5.584;2023-05-07T12:28:05;9.05;;;8.15;;
67768;SDS011;54569;52.018;5.584;2023-05-07T12:30:37;9.18;;;8.27;;
67768;SDS011;54569;52.018;5.584;2023-05-07T12:33:04;8.35;;;7.45;;
67768;SDS011;54569;52.018;5.584;2023-05-07T12:35:30;7.82;;;7.15;;
67768;SDS011;54569;52.018;5.584;2023-05-07T12:37:57;8.50;;;7.72;;
67768;SDS011;54569;52.018;5.584;2023-05-07T12:40:34;7.30;;;6.70;;
67768;SDS011;54569;52.018;5.584;2023-05-07T12:43:23;7.75;;;7.05;;
67768;SDS011;54569;52.018;5.584;2023-05-07T12:45:51;8.23;;;6.57;;
67768;SDS011;54569;52.018;5.584;2023-05-07T12:48:20;7.32;;;6.57;;
67768;SDS011;54569;52.018;5.584;2023-05-07T12:50:56;7.38;;;6.20;;
67768;SDS011;54569;52.018;5.584;2023-05-07T12:53:23;7.10;;;6.32;;
67768;SDS011;54569;52.018;5.584;2023-05-07T12:55:54;6.22;;;5.57;;
67768;SDS011;54569;52.018;5.584;2023-05-07T12:58:29;6.53;;;4.78;;
67768;SDS011;54569;52.018;5.584;2023-05-07T13:00:56;4.60;;;4.10;;
67768;SDS011;54569;52.018;5.584;2023-05-07T13:03:32;6.13;;;4.00;;
67768;SDS011;54569;52.018;5.584;2023-05-07T13:06:01;4.07;;;3.17;;
67768;SDS011;54569;52.018;5.584;2023-05-07T13:08:32;5.13;;;3.50;;
67768;SDS011;54569;52.018;5.584;2023-05-07T13:10:58;3.35;;;3.05;;
67768;SDS011;54569;52.018;5.584;2023-05-07T13:13:28;3.75;;;2.88;;
67768;SDS011;54569;52.018;5.584;2023-05-07T13:15:57;5.93;;;2.70;;
67768;SDS011;54569;52.018;5.584;2023-05-07T13:18:24;3.50;;;3.17;;
67768;SDS011;54569;52.018;5.584;2023-05-07T13:20:50;6.68;;;5.60;;
67768;SDS011;54569;52.018;5.584;2023-05-07T13:23:16;6.25;;;5.65;;
67768;SDS011;54569;52.018;5.584;2023-05-07T13:25:42;6.20;;;5.80;;
67768;SDS011;54569;52.018;5.584;2023-05-07T13:28:08;4.80;;;4.43;;
67768;SDS011;54569;52.018;5.584;2023-05-07T13:30:34;7.13;;;4.43;;
67768;SDS011;54569;52.018;5.584;2023-05-07T13:33:00;7.43;;;6.72;;
67768;SDS011;54569;52.018;5.584;2023-05-07T13:35:25;7.10;;;6.50;;
67768;SDS011;54569;52.018;5.584;2023-05-07T13:37:51;6.93;;;6.32;;
67768;SDS011;54569;52.018;5.584;2023-05-07T13:40:17;9.40;;;8.50;;
67768;SDS011;54569;52.018;5.584;2023-05-07T13:42:44;9.07;;;8.35;;
67768;SDS011;54569;52.018;5.584;2023-05-07T13:45:10;9.38;;;8.60;;
67768;SDS011;54569;52.018;5.584;2023-05-07T13:47:39;8.60;;;7.90;;
67768;SDS011;54569;52.018;5.584;2023-05-07T13:50:06;9.20;;;8.40;;
67768;SDS011;54569;52.018;5.584;2023-05-07T13:52:33;10.55;;;8.50;;
67768;SDS011;54569;52.018;5.584;2023-05-07T13:54:59;8.98;;;8.02;;
67768;SDS011;54569;52.018;5.584;2023-05-07T13:57:24;7.43;;;6.72;;
67768;SDS011;54569;52.018;5.584;2023-05-07T13:59:50;6.50;;;5.82;;
67768;SDS011;54569;52.018;5.584;2023-05-07T14:02:16;6.10;;;5.47;;
67768;SDS011;54569;52.018;5.584;2023-05-07T14:04:41;3.47;;;3.10;;
67768;SDS011;54569;52.018;5.584;2023-05-07T14:07:07;4.80;;;4.32;;
67768;SDS011;54569;52.018;5.584;2023-05-07T14:09:33;10.95;;;10.10;;
67768;SDS011;54569;52.018;5.584;2023-05-07T14:11:59;11.05;;;9.95;;
67768;SDS011;54569;52.018;5.584;2023-05-07T14:14:25;11.73;;;10.45;;
67768;SDS011;54569;52.018;5.584;2023-05-07T14:16:50;9.95;;;9.05;;
67768;SDS011;54569;52.018;5.584;2023-05-07T14:19:16;4.43;;;4.03;;
67768;SDS011;54569;52.018;5.584;2023-05-07T14:21:45;10.73;;;9.63;;
67768;SDS011;54569;52.018;5.584;2023-05-07T14:24:11;12.90;;;11.68;;
67768;SDS011;54569;52.018;5.584;2023-05-07T14:26:36;12.70;;;11.50;;
67768;SDS011;54569;52.018;5.584;2023-05-07T14:29:02;12.10;;;10.93;;
67768;SDS011;54569;52.018;5.584;2023-05-07T14:31:28;13.60;;;12.23;;
67768;SDS011;54569;52.018;5.584;2023-05-07T14:33:54;12.27;;;11.07;;
67768;SDS011;54569;52.018;5.584;2023-05-07T14:36:20;14.00;;;12.80;;
67768;SDS011;54569;52.018;5.584;2023-05-07T14:38:47;13.20;;;11.88;;
67768;SDS011;54569;52.018;5.584;2023-05-07T14:41:13;12.50;;;11.38;;
67768;SDS011;54569;52.018;5.584;2023-05-07T14:43:39;13.65;;;12.35;;
67768;SDS011;54569;52.018;5.584;2023-05-07T14:46:05;12.90;;;10.60;;
67768;SDS011;54569;52.018;5.584;2023-05-07T14:48:31;11.73;;;10.63;;